Terminal Aerodrome Forecast
Issued by NWS Charleston, WV

Current Version | Previous Version | Text Only | Print | Product List | Glossary Off
Versions: 1 2 3 4 5 6 7 8 9 10 11 12 13 14 15 16 17 18 19 20 21 22 23 24

000
FTUS41 KRLX 020914 AAA
TAFPKB
TAF AMD
KPKB 020914Z 0209/0306 00000KT 6SM BR SCT250
      TEMPO 0210/0212 00000KT 5SM BR FEW001
     FM021300 00000KT P6SM SCT250
     FM021500 22004KT P6SM FEW050
     FM022200 23006KT P6SM BKN250=

USA.gov is the U.S. government's official web portal to all federal, state and local government web resources and services.